Time;durP1;ratioP1;P1;durP2;ratioP2;P2;SDS_P1;SDS_P2;PMS_P1;PMS_P2;Temp;Humidity;BMP_temperature;BMP_pressure;BME280_temperature;BME280_humidity;BME280_pressure;Samples;Min_cycle;Max_cycle;Signal;HPM_P1;HPM_P2
2023/04/21 00:00:14;;;;;;;5.63;3.00;;;;;;;13.10;100.00;100879.34;2080197;28;20048;-75
2023/04/21 00:01:36;;;;;;;5.88;2.55;;;;;;;13.09;100.00;100872.25;2077263;28;20069;-74
2023/04/21 00:02:58;;;;;;;5.32;3.10;;;;;;;13.07;100.00;100879.31;2077463;28;20472;-74
2023/04/21 00:04:19;;;;;;;5.95;3.13;;;;;;;13.06;100.00;100874.88;2074823;28;20042;-74
2023/04/21 00:05:42;;;;;;;6.32;3.38;;;;;;;13.06;100.00;100874.03;2077746;28;20319;-74
2023/04/21 00:07:03;;;;;;;7.05;3.10;;;;;;;13.05;100.00;100874.88;2076815;28;20705;-74
2023/04/21 00:08:26;;;;;;;4.40;3.10;;;;;;;13.05;100.00;100872.25;2071942;28;20038;-74
2023/04/21 00:09:48;;;;;;;5.53;3.10;;;;;;;13.04;100.00;100870.47;2078001;28;20359;-74
2023/04/21 00:11:10;;;;;;;5.93;2.92;;;;;;;13.02;100.00;100880.16;2077085;28;20401;-75
2023/04/21 00:12:32;;;;;;;5.80;3.20;;;;;;;13.01;100.00;100879.25;2072167;28;20644;-74
2023/04/21 00:13:56;;;;;;;6.28;2.92;;;;;;;13.02;100.00;100874.84;2074592;28;20429;-73
2023/04/21 00:15:17;;;;;;;6.28;2.95;;;;;;;13.03;100.00;100871.34;2085704;28;20053;-74
2023/04/21 00:16:39;;;;;;;6.15;3.50;;;;;;;13.01;100.00;100862.47;2085697;28;20143;-74
2023/04/21 00:18:02;;;;;;;5.60;3.05;;;;;;;12.98;100.00;100867.78;2082380;28;20064;-74
2023/04/21 00:19:23;;;;;;;6.95;3.67;;;;;;;12.99;100.00;100872.19;2079169;28;20046;-74
2023/04/21 00:20:46;;;;;;;5.45;3.30;;;;;;;12.98;100.00;100873.06;2088242;28;20055;-74
2023/04/21 00:22:11;;;;;;;7.28;3.40;;;;;;;12.96;100.00;100866.84;2073820;28;20085;-74
2023/04/21 00:23:33;;;;;;;5.50;3.15;;;;;;;12.95;100.00;100870.38;2069724;28;20077;-74
2023/04/21 00:24:54;;;;;;;5.57;3.30;;;;;;;12.96;100.00;100866.84;2071705;28;20410;-74
2023/04/21 00:26:16;;;;;;;5.88;3.60;;;;;;;12.96;100.00;100867.75;2076407;28;20048;-74
2023/04/21 00:27:40;;;;;;;11.70;3.67;;;;;;;12.97;100.00;100868.66;2069496;28;20076;-74
2023/04/21 00:29:04;;;;;;;6.10;3.33;;;;;;;12.98;100.00;100859.81;2074612;28;20046;-74
2023/04/21 00:30:26;;;;;;;7.72;3.72;;;;;;;12.98;100.00;100857.16;2063931;28;20494;-74
2023/04/21 00:31:49;;;;;;;7.28;3.58;;;;;;;12.96;100.00;100858.91;2069003;28;20045;-74
2023/04/21 00:33:10;;;;;;;7.18;3.35;;;;;;;12.94;100.00;100853.59;2061284;28;20054;-74
2023/04/21 00:34:32;;;;;;;7.75;3.55;;;;;;;12.95;100.00;100846.53;2061185;28;20136;-74
2023/04/21 00:35:57;;;;;;;7.93;3.70;;;;;;;12.93;100.00;100841.22;2072955;28;20460;-74
2023/04/21 00:37:20;;;;;;;6.72;3.42;;;;;;;12.90;100.00;100835.03;2069606;28;20461;-74
2023/04/21 00:38:42;;;;;;;7.95;3.45;;;;;;;12.85;100.00;100836.75;2077288;28;20057;-74
2023/04/21 00:40:04;;;;;;;8.18;3.42;;;;;;;12.78;100.00;100836.72;2063687;28;20058;-74
2023/04/21 00:41:28;;;;;;;7.97;3.53;;;;;;;12.73;100.00;100843.72;2064073;28;20736;-74
2023/04/21 00:42:50;;;;;;;6.22;3.25;;;;;;;12.68;100.00;100841.91;2061715;28;20042;-75
2023/04/21 00:44:14;;;;;;;6.03;3.15;;;;;;;12.71;100.00;100837.53;2059173;28;20132;-75
2023/04/21 00:45:35;;;;;;;6.05;3.35;;;;;;;12.75;100.00;100835.78;2077256;28;20489;-74
2023/04/21 00:46:58;;;;;;;6.20;3.70;;;;;;;12.77;100.00;100834.94;2076006;28;20033;-75
2023/04/21 00:48:19;;;;;;;8.57;3.92;;;;;;;12.80;100.00;100828.75;2069303;28;20054;-75
2023/04/21 00:49:42;;;;;;;8.80;3.33;;;;;;;12.81;100.00;100829.66;2082783;28;20053;-74
2023/04/21 00:51:04;;;;;;;6.60;3.40;;;;;;;12.80;100.00;100831.41;2061234;28;20046;-74
2023/04/21 00:52:27;;;;;;;8.50;4.28;;;;;;;12.78;100.00;100830.53;2072140;28;20053;-75
2023/04/21 00:53:50;;;;;;;5.35;3.60;;;;;;;12.77;100.00;100834.94;2069456;28;20153;-74
2023/04/21 00:55:13;;;;;;;7.15;3.25;;;;;;;12.76;100.00;100833.16;2066776;28;20494;-75
2023/04/21 00:56:37;;;;;;;6.03;3.22;;;;;;;12.74;100.00;100844.59;2068040;28;20066;-74
2023/04/21 00:58:00;;;;;;;5.22;3.28;;;;;;;12.75;100.00;100847.28;2069141;28;20046;-75
2023/04/21 00:59:25;;;;;;;5.82;3.38;;;;;;;12.74;100.00;100840.19;2068780;28;20069;-74
2023/04/21 01:00:47;;;;;;;5.57;3.28;;;;;;;12.72;100.00;100841.09;2066561;28;20092;-75
2023/04/21 01:02:09;;;;;;;6.78;3.10;;;;;;;12.69;100.00;100839.28;2078437;28;20110;-74
2023/04/21 01:03:30;;;;;;;5.38;3.13;;;;;;;12.68;100.00;100833.97;2081967;28;20049;-74
2023/04/21 01:04:53;;;;;;;4.93;3.47;;;;;;;12.67;100.00;100832.19;2078444;28;20421;-75
2023/04/21 01:06:14;;;;;;;6.75;3.40;;;;;;;12.66;100.00;100826.03;2070911;28;20099;-75
2023/04/21 01:07:37;;;;;;;6.55;3.47;;;;;;;12.65;100.00;100826.91;2073647;28;20602;-74
2023/04/21 01:08:58;;;;;;;6.35;2.90;;;;;;;12.63;100.00;100823.34;2077018;28;20076;-74
2023/04/21 01:10:20;;;;;;;6.05;3.45;;;;;;;12.65;100.00;100823.38;2069344;28;20053;-75
2023/04/21 01:11:42;;;;;;;6.75;3.55;;;;;;;12.64;100.00;100822.47;2065227;28;20054;-74
2023/04/21 01:13:04;;;;;;;7.00;3.40;;;;;;;12.66;100.00;100823.38;2069041;28;20552;-74
2023/04/21 01:14:27;;;;;;;7.07;3.83;;;;;;;12.72;100.00;100823.44;2071754;28;20153;-75
2023/04/21 01:15:50;;;;;;;7.43;3.50;;;;;;;12.81;100.00;100829.66;2074703;28;20041;-74
2023/04/21 01:17:11;;;;;;;4.28;2.90;;;;;;;12.91;100.00;100820.91;2069720;28;20080;-74
2023/04/21 01:18:33;;;;;;;6.88;3.35;;;;;;;12.98;100.00;100826.25;2073513;28;20499;-75
2023/04/21 01:19:56;;;;;;;5.35;2.95;;;;;;;13.07;100.00;100823.66;2066295;28;20038;-75
2023/04/21 01:21:19;;;;;;;4.47;3.10;;;;;;;13.15;100.00;100823.75;2069120;28;20054;-75
2023/04/21 01:22:44;;;;;;;5.88;3.33;;;;;;;13.22;100.00;100836.16;2076577;28;20053;-75
2023/04/21 01:24:06;;;;;;;5.07;3.10;;;;;;;13.25;100.00;100822.94;2069441;28;20065;-75
2023/04/21 01:25:28;;;;;;;5.68;2.97;;;;;;;13.29;100.00;100823.81;2082962;28;20033;-75
2023/04/21 01:26:50;;;;;;;6.88;3.03;;;;;;;13.30;100.00;100815.88;2078957;28;20104;-75
2023/04/21 01:28:12;;;;;;;4.55;2.75;;;;;;;13.31;100.00;100817.66;2074813;28;20048;-75
2023/04/21 01:29:34;;;;;;;6.25;2.97;;;;;;;13.31;100.00;100820.31;2074631;28;20045;-74
2023/04/21 01:30:56;;;;;;;5.28;3.17;;;;;;;13.34;100.00;100814.13;2082764;28;20072;-74
2023/04/21 01:32:20;;;;;;;6.20;2.80;;;;;;;13.38;100.00;100818.59;2085305;28;20141;-75
2023/04/21 01:33:43;;;;;;;5.72;2.60;;;;;;;13.40;100.00;100824.75;2072382;28;20107;-75
2023/04/21 01:35:05;;;;;;;6.22;2.78;;;;;;;13.41;100.00;100824.78;2068909;28;20503;-74
2023/04/21 01:36:28;;;;;;;5.13;2.60;;;;;;;13.42;100.00;100821.25;2068297;28;20142;-75
2023/04/21 01:37:52;;;;;;;5.38;3.08;;;;;;;13.48;100.00;100826.56;2076108;28;20578;-74
2023/04/21 01:39:14;;;;;;;3.25;2.50;;;;;;;13.54;100.00;100821.28;2083834;28;20520;-75
2023/04/21 01:40:36;;;;;;;4.47;2.80;;;;;;;13.61;100.00;100823.97;2077065;28;20559;-75
2023/04/21 01:41:59;;;;;;;7.28;2.78;;;;;;;13.66;100.00;100825.75;2063456;28;20490;-75
2023/04/21 01:43:24;;;;;;;4.57;3.08;;;;;;;13.71;100.00;100824.03;2074841;28;20552;-75
2023/04/21 01:44:45;;;;;;;5.90;3.08;;;;;;;13.73;100.00;100824.91;2063446;28;20042;-74
2023/04/21 01:46:08;;;;;;;9.90;3.22;;;;;;;13.74;100.00;100826.69;2069162;28;20140;-75
2023/04/21 01:47:33;;;;;;;7.15;3.08;;;;;;;13.78;100.00;100830.25;2073232;28;20140;-75
2023/04/21 01:48:55;;;;;;;5.13;2.78;;;;;;;13.81;100.00;100825.81;2085100;28;21256;-74
2023/04/21 01:50:17;;;;;;;6.13;3.25;;;;;;;13.85;100.00;100829.34;2081952;28;20033;-75
2023/04/21 01:51:39;;;;;;;7.22;2.80;;;;;;;13.89;100.00;100825.84;2077266;28;20572;-74
2023/04/21 01:53:03;;;;;;;7.57;3.17;;;;;;;13.93;100.00;100827.63;2070540;28;20460;-74
2023/04/21 01:54:24;;;;;;;6.30;3.05;;;;;;;13.94;100.00;100824.09;2071169;28;20041;-74
2023/04/21 01:55:47;;;;;;;4.65;2.65;;;;;;;13.96;100.00;100814.38;2068403;28;20065;-75
2023/04/21 01:57:10;;;;;;;5.32;2.90;;;;;;;14.00;100.00;100821.44;2068388;28;20052;-74
2023/04/21 01:58:33;;;;;;;4.93;2.90;;;;;;;14.01;100.00;100812.59;2066348;28;20172;-74
2023/04/21 01:59:55;;;;;;;5.20;3.00;;;;;;;14.03;100.00;100818.81;2066157;28;20099;-74
2023/04/21 02:01:16;;;;;;;4.53;3.13;;;;;;;14.03;100.00;100816.16;2060292;28;20038;-74
2023/04/21 02:02:38;;;;;;;7.90;2.72;;;;;;;14.03;100.00;100818.81;2066211;28;20375;-74
2023/04/21 02:04:00;;;;;;;5.07;3.17;;;;;;;14.04;100.00;100807.31;2068834;28;20129;-75
2023/04/21 02:05:22;;;;;;;5.22;3.05;;;;;;;14.05;100.00;100814.38;2064299;28;20073;-74
2023/04/21 02:06:43;;;;;;;6.32;3.25;;;;;;;14.07;100.00;100812.63;2077177;28;20052;-74
2023/04/21 02:08:07;;;;;;;5.88;3.20;;;;;;;14.10;100.00;100815.31;2077062;28;20058;-74
2023/04/21 02:09:30;;;;;;;6.22;2.83;;;;;;;14.12;100.00;100812.63;2078268;28;20037;-75
2023/04/21 02:10:51;;;;;;;5.85;2.85;;;;;;;14.06;100.00;100810.84;2076132;28;20049;-74
2023/04/21 02:12:13;;;;;;;4.10;2.85;;;;;;;14.06;100.00;100804.66;2075661;28;20084;-74
2023/04/21 02:13:37;;;;;;;4.95;2.85;;;;;;;14.07;100.00;100801.13;2070521;28;20665;-74
2023/04/21 02:15:00;;;;;;;5.28;2.72;;;;;;;14.08;100.00;100809.09;2070415;28;20594;-74
2023/04/21 02:16:24;;;;;;;4.90;2.47;;;;;;;14.07;100.00;100803.78;2062243;28;20065;-75
2023/04/21 02:17:47;;;;;;;5.40;2.78;;;;;;;14.06;100.00;100799.34;2062730;28;20049;-75
2023/04/21 02:19:08;;;;;;;8.02;3.22;;;;;;;14.07;100.00;100802.00;2067885;28;20053;-75
2023/04/21 02:20:30;;;;;;;7.38;3.05;;;;;;;14.10;100.00;100796.72;2064798;28;20038;-74
2023/04/21 02:21:53;;;;;;;5.93;3.20;;;;;;;14.12;100.00;100802.88;2089947;28;20053;-75
2023/04/21 02:23:18;;;;;;;7.15;2.97;;;;;;;14.13;100.00;100798.47;2081055;28;20045;-74
2023/04/21 02:24:41;;;;;;;5.00;3.00;;;;;;;14.13;100.00;100795.81;2074292;28;20559;-75
2023/04/21 02:26:03;;;;;;;6.53;3.10;;;;;;;14.13;100.00;100790.50;2070185;28;20516;-74
2023/04/21 02:27:27;;;;;;;6.15;3.60;;;;;;;14.14;100.00;100792.28;2070646;28;20052;-74
2023/04/21 02:28:50;;;;;;;4.88;3.00;;;;;;;14.15;100.00;100794.94;2070179;28;20046;-75
2023/04/21 02:30:12;;;;;;;4.38;3.10;;;;;;;14.14;100.00;100795.81;2070466;28;20391;-74
2023/04/21 02:31:36;;;;;;;5.80;3.15;;;;;;;14.11;100.00;100798.47;2077956;28;20132;-74
2023/04/21 02:32:57;;;;;;;5.45;3.03;;;;;;;14.11;100.00;100800.25;2072770;28;20050;-74
2023/04/21 02:34:20;;;;;;;7.32;3.35;;;;;;;14.11;100.00;100802.91;2071545;28;20132;-74
2023/04/21 02:35:43;;;;;;;8.10;3.50;;;;;;;14.09;100.00;100804.66;2070342;28;20153;-74
2023/04/21 02:37:05;;;;;;;4.65;3.15;;;;;;;14.07;100.00;100807.31;2069898;28;20046;-74
2023/04/21 02:38:28;;;;;;;7.28;3.30;;;;;;;14.03;100.00;100805.53;2070075;28;20050;-74
2023/04/21 02:39:50;;;;;;;6.70;3.10;;;;;;;13.96;100.00;100811.72;2070076;28;20363;-74
2023/04/21 02:41:13;;;;;;;5.85;3.40;;;;;;;13.91;100.00;100811.69;2065502;28;20050;-74
2023/04/21 02:42:34;;;;;;;5.97;3.60;;;;;;;13.88;100.00;100810.81;2084036;28;20484;-74
2023/04/21 02:43:56;;;;;;;8.70;4.57;;;;;;;13.85;100.00;100805.47;2076705;28;20080;-74
2023/04/21 02:45:19;;;;;;;6.55;3.88;;;;;;;13.83;100.00;100812.56;2067072;28;20510;-76
2023/04/21 02:46:40;;;;;;;7.40;4.10;;;;;;;13.79;100.00;100813.41;2076042;28;20049;-75
2023/04/21 02:48:03;;;;;;;7.07;4.50;;;;;;;13.75;100.00;100811.66;2078050;28;20119;-74
2023/04/21 02:49:24;;;;;;;9.25;5.55;;;;;;;13.71;100.00;100816.06;2069662;28;20041;-75
2023/04/21 02:50:47;;;;;;;6.78;3.83;;;;;;;13.67;100.00;100811.63;2071995;28;20140;-74
2023/04/21 02:52:08;;;;;;;6.65;3.60;;;;;;;13.65;100.00;100812.50;2074964;28;20057;-74
2023/04/21 02:53:33;;;;;;;8.10;4.10;;;;;;;13.62;100.00;100812.47;2070933;28;20053;-74
2023/04/21 02:54:54;;;;;;;7.35;3.83;;;;;;;13.59;100.00;100807.19;2078549;28;20057;-74
2023/04/21 02:56:17;;;;;;;8.35;4.43;;;;;;;13.55;100.00;100812.47;2066951;28;20034;-74
2023/04/21 02:57:40;;;;;;;8.13;4.13;;;;;;;13.53;100.00;100823.94;2066716;28;20473;-74
2023/04/21 02:59:02;;;;;;;7.88;4.25;;;;;;;13.50;100.00;100818.63;2067267;28;20510;-75
2023/04/21 03:00:25;;;;;;;9.38;5.28;;;;;;;13.46;100.00;100828.31;2071892;28;20050;-74
2023/04/21 03:01:48;;;;;;;7.18;4.90;;;;;;;13.43;100.00;100820.38;2074557;28;20119;-74
2023/04/21 03:03:10;;;;;;;8.05;4.93;;;;;;;13.42;100.00;100825.66;2086414;28;20049;-74
2023/04/21 03:04:32;;;;;;;9.35;5.63;;;;;;;13.41;100.00;100830.06;2077735;28;20049;-75
2023/04/21 03:05:57;;;;;;;8.25;5.30;;;;;;;13.41;100.00;100834.47;2083090;28;20386;-74
2023/04/21 03:07:19;;;;;;;8.40;4.95;;;;;;;13.38;100.00;100832.72;2078402;28;20056;-74
2023/04/21 03:08:43;;;;;;;8.85;4.63;;;;;;;13.37;100.00;100843.31;2064323;28;20069;-74
2023/04/21 03:10:06;;;;;;;7.80;4.70;;;;;;;13.34;100.00;100838.88;2067364;28;20044;-74
2023/04/21 03:11:27;;;;;;;7.97;4.05;;;;;;;13.32;100.00;100847.72;2072432;28;20418;-75
2023/04/21 03:12:50;;;;;;;8.05;4.72;;;;;;;13.30;100.00;100846.81;2069614;28;20050;-74
2023/04/21 03:14:11;;;;;;;8.95;4.32;;;;;;;13.27;100.00;100849.44;2076657;28;20067;-75
2023/04/21 03:15:33;;;;;;;9.57;5.47;;;;;;;13.25;100.00;100848.56;2069987;28;20077;-75
2023/04/21 03:16:57;;;;;;;9.68;5.25;;;;;;;13.23;100.00;100848.53;2070063;28;20045;-74
2023/04/21 03:18:19;;;;;;;7.68;4.97;;;;;;;13.21;100.00;100860.00;2065903;28;20050;-75
2023/04/21 03:19:40;;;;;;;9.10;5.50;;;;;;;13.19;100.00;100860.00;2082576;28;20076;-75
2023/04/21 03:21:03;;;;;;;9.45;5.88;;;;;;;13.17;100.00;100864.41;2085352;28;20132;-75
2023/04/21 03:22:26;;;;;;;9.63;5.65;;;;;;;13.15;100.00;100860.84;2072592;28;20053;-75
2023/04/21 03:23:48;;;;;;;9.00;5.60;;;;;;;13.14;100.00;100853.75;2069510;28;20572;-75
2023/04/21 03:25:11;;;;;;;8.25;5.57;;;;;;;13.11;100.00;100862.56;2069793;28;20060;-74
2023/04/21 03:26:33;;;;;;;9.02;6.28;;;;;;;13.11;100.00;100861.69;2069801;28;20081;-74
2023/04/21 03:27:56;;;;;;;12.82;7.53;;;;;;;13.11;100.00;100859.91;2061843;28;20470;-73
2023/04/21 03:29:17;;;;;;;12.68;8.02;;;;;;;13.13;100.00;100863.47;2061369;28;20059;-74
2023/04/21 03:30:40;;;;;;;11.30;8.52;;;;;;;13.15;100.00;100864.38;2073359;28;20161;-74
2023/04/21 03:32:01;;;;;;;10.65;6.75;;;;;;;13.17;100.00;100872.34;2077851;28;20049;-74
2023/04/21 03:33:23;;;;;;;10.70;7.07;;;;;;;13.16;100.00;100868.81;2068932;28;20601;-74
2023/04/21 03:34:45;;;;;;;9.40;7.30;;;;;;;13.15;100.00;100871.44;2077765;28;20057;-74
2023/04/21 03:36:08;;;;;;;11.60;7.13;;;;;;;13.13;100.00;100873.19;2083229;28;20045;-74
2023/04/21 03:37:30;;;;;;;10.90;7.93;;;;;;;13.11;100.00;100869.63;2071334;28;20067;-74
2023/04/21 03:38:53;;;;;;;13.25;8.13;;;;;;;13.09;100.00;100874.03;2075389;28;20063;-74
2023/04/21 03:40:16;;;;;;;11.15;8.30;;;;;;;13.08;100.00;100880.19;2072198;28;20540;-75
2023/04/21 03:41:38;;;;;;;12.05;8.52;;;;;;;13.07;100.00;100871.34;2069457;28;20644;-74
2023/04/21 03:43:00;;;;;;;11.90;8.27;;;;;;;13.06;100.00;100868.72;2061766;28;20096;-74
2023/04/21 03:44:25;;;;;;;14.30;10.70;;;;;;;13.07;100.00;100873.13;2083036;28;20077;-74
2023/04/21 03:45:47;;;;;;;14.35;10.27;;;;;;;13.09;100.00;100879.31;2080160;28;20067;-75
2023/04/21 03:47:09;;;;;;;13.63;10.13;;;;;;;13.12;100.00;100882.94;2069770;28;20541;-74
2023/04/21 03:48:30;;;;;;;13.30;10.15;;;;;;;13.13;100.00;100882.03;2061183;28;20569;-75
2023/04/21 03:49:53;;;;;;;17.17;10.43;;;;;;;13.15;100.00;100887.34;2074186;28;20123;-74
2023/04/21 03:51:15;;;;;;;14.57;10.15;;;;;;;13.15;100.00;100885.59;2080413;28;20054;-75
2023/04/21 03:52:36;;;;;;;11.60;8.63;;;;;;;13.19;100.00;100886.53;2077727;28;20049;-74
2023/04/21 03:54:00;;;;;;;11.15;8.60;;;;;;;13.24;100.00;100898.03;2073747;28;20034;-74
2023/04/21 03:55:22;;;;;;;12.32;9.27;;;;;;;13.29;100.00;100896.28;2083307;28;20105;-74
2023/04/21 03:56:45;;;;;;;12.57;9.40;;;;;;;13.35;100.00;100904.28;2072098;28;20060;-74
2023/04/21 03:58:06;;;;;;;15.32;10.88;;;;;;;13.40;100.00;100912.25;2069514;28;20042;-74
2023/04/21 03:59:29;;;;;;;11.07;9.07;;;;;;;13.46;100.00;100918.50;2061223;28;20100;-74
2023/04/21 04:00:50;;;;;;;10.52;7.93;;;;;;;13.51;100.00;100922.09;2066198;28;20053;-74
2023/04/21 04:02:12;;;;;;;11.05;7.78;;;;;;;13.56;100.00;100920.34;2061191;28;20046;-74
2023/04/21 04:03:35;;;;;;;11.90;6.80;;;;;;;13.63;100.00;100923.03;2067143;28;20053;-75
2023/04/21 04:04:56;;;;;;;10.93;6.80;;;;;;;13.70;100.00;100925.72;2069243;28;20092;-74
2023/04/21 04:06:19;;;;;;;10.60;7.40;;;;;;;13.78;100.00;100926.66;2077610;28;20103;-74
2023/04/21 04:07:41;;;;;;;11.48;6.30;;;;;;;13.86;100.00;100924.91;2076567;28;20045;-75
2023/04/21 04:09:05;;;;;;;10.68;6.30;;;;;;;13.96;100.00;100923.19;2069948;28;20104;-74
2023/04/21 04:10:26;;;;;;;9.60;6.43;;;;;;;14.06;100.00;100927.66;2063889;28;20046;-74
2023/04/21 04:11:48;;;;;;;8.82;5.68;;;;;;;14.16;100.00;100921.50;2061372;28;20541;-74
2023/04/21 04:13:10;;;;;;;8.23;5.72;;;;;;;14.26;100.00;100930.38;2067041;28;20676;-74
2023/04/21 04:14:32;;;;;;;7.72;5.43;;;;;;;14.34;100.00;100925.97;2069450;28;20038;-74
2023/04/21 04:15:55;;;;;;;8.35;5.78;;;;;;;14.40;100.00;100922.47;2068997;28;20034;-74
2023/04/21 04:17:16;;;;;;;10.77;6.10;;;;;;;14.46;100.00;100922.50;2069291;28;20140;-74
2023/04/21 04:18:38;;;;;;;10.30;6.90;;;;;;;14.50;100.00;100922.53;2069239;28;20158;-74
2023/04/21 04:20:00;;;;;;;9.38;6.55;;;;;;;14.60;100.00;100921.66;2069311;28;20127;-74
2023/04/21 04:21:22;;;;;;;;;;;;;;;14.68;100.00;100916.34;2069339;28;20042;-74
2023/04/21 04:22:44;;;;;;;6.68;5.53;;;;;;;14.79;100.00;100914.56;2076553;28;19925;-75
2023/04/21 04:24:10;;;;;;;7.45;5.32;;;;;;;14.90;100.00;100919.91;2077352;28;20041;-75
2023/04/21 04:25:33;;;;;;;7.32;5.45;;;;;;;14.99;100.00;100918.13;2077657;28;20664;-74
2023/04/21 04:26:56;;;;;;;9.48;6.07;;;;;;;15.08;100.00;100915.50;2076687;28;20058;-75
2023/04/21 04:28:21;;;;;;;8.15;5.90;;;;;;;15.12;100.00;100913.69;2081577;28;20045;-74
2023/04/21 04:29:42;;;;;;;9.63;6.05;;;;;;;15.16;100.00;100908.38;2077484;28;20073;-75
2023/04/21 04:31:06;;;;;;;7.78;5.50;;;;;;;15.20;100.00;100913.69;2079894;28;20081;-74
2023/04/21 04:32:27;;;;;;;7.03;5.22;;;;;;;15.22;100.00;100909.28;2076805;28;20464;-74
2023/04/21 04:33:49;;;;;;;8.20;4.90;;;;;;;15.25;100.00;100907.47;2068111;28;20103;-74
2023/04/21 04:35:13;;;;;;;8.13;5.05;;;;;;;15.32;100.00;100917.22;2074857;28;20094;-74
2023/04/21 04:36:34;;;;;;;7.30;4.57;;;;;;;15.40;100.00;100918.09;2077447;28;20430;-74
2023/04/21 04:37:57;;;;;;;6.40;5.13;;;;;;;15.47;100.00;100921.66;2079113;28;20068;-74
2023/04/21 04:39:21;;;;;;;7.25;5.13;;;;;;;15.51;100.00;100921.63;2077283;28;20053;-74
2023/04/21 04:40:43;;;;;;;7.63;4.70;;;;;;;15.52;100.00;100917.19;2077257;28;20049;-75
2023/04/21 04:42:08;;;;;;;8.48;4.78;;;;;;;15.56;100.00;100923.44;2069271;28;20062;-74
2023/04/21 04:43:32;;;;;;;10.82;5.18;;;;;;;15.54;100.00;100927.00;2066512;28;20042;-75
2023/04/21 04:44:55;;;;;;;8.45;5.32;;;;;;;15.49;100.00;100920.72;2075144;28;20057;-74
2023/04/21 04:46:19;;;;;;;10.68;6.25;;;;;;;15.43;100.00;100930.50;2076598;28;20405;-75
2023/04/21 04:47:40;;;;;;;16.08;11.90;;;;;;;15.30;100.00;100926.97;2070664;28;20049;-74
2023/04/21 04:49:03;;;;;;;18.25;13.10;;;;;;;15.17;100.00;100925.22;2084552;28;20132;-74
2023/04/21 04:50:25;;;;;;;18.77;14.50;;;;;;;15.07;100.00;100934.09;2080692;28;20057;-74
2023/04/21 04:51:47;;;;;;;16.95;13.80;;;;;;;15.00;100.00;100932.31;2073646;28;20041;-74
2023/04/21 04:53:09;;;;;;;14.88;11.48;;;;;;;15.02;100.00;100923.47;2079806;28;20438;-75
2023/04/21 04:54:33;;;;;;;14.95;9.82;;;;;;;15.11;100.00;100942.06;2077429;28;20487;-75
2023/04/21 04:55:54;;;;;;;14.77;10.55;;;;;;;15.21;100.00;100942.06;2077379;28;20053;-74
2023/04/21 04:57:16;;;;;;;13.85;9.65;;;;;;;15.32;100.00;100943.81;2085319;28;20159;-75
2023/04/21 04:58:39;;;;;;;11.93;8.52;;;;;;;15.49;100.00;100947.34;2080567;28;20049;-74
2023/04/21 05:00:01;;;;;;;12.88;8.23;;;;;;;15.66;100.00;100944.69;2081084;28;20593;-74
2023/04/21 05:01:28;;;;;;;12.40;7.43;;;;;;;15.84;100.00;100944.66;2073853;28;20049;-74
2023/04/21 05:02:51;;;;;;;7.85;5.35;;;;;;;16.01;100.00;100944.59;2069826;28;20055;-75
2023/04/21 05:04:15;;;;;;;6.10;3.88;;;;;;;16.20;100.00;100943.63;2074693;28;20558;-74
2023/04/21 05:05:36;;;;;;;7.55;4.32;;;;;;;16.40;100.00;100947.97;2083708;28;20444;-74
2023/04/21 05:06:59;;;;;;;7.03;4.72;;;;;;;16.57;100.00;100941.66;2074939;28;20049;-75
2023/04/21 05:08:21;;;;;;;6.10;3.88;;;;;;;16.73;100.00;100937.16;2077446;28;20041;-75
2023/04/21 05:09:45;;;;;;;8.27;3.63;;;;;;;16.85;100.00;100945.06;2071441;28;20402;-74
2023/04/21 05:11:07;;;;;;;6.70;3.33;;;;;;;16.99;100.00;100936.97;2074973;28;20042;-75
2023/04/21 05:12:30;;;;;;;5.65;3.05;;;;;;;17.16;100.00;100948.38;2072652;28;20398;-75
2023/04/21 05:13:52;;;;;;;6.85;3.53;;;;;;;17.32;100.00;100950.00;2068782;28;20078;-75
2023/04/21 05:15:14;;;;;;;4.95;2.80;;;;;;;17.51;100.00;100951.63;2077331;28;20542;-75
2023/04/21 05:16:35;;;;;;;6.63;3.00;;;;;;;17.70;100.00;100940.78;2077404;28;20572;-74
2023/04/21 05:17:58;;;;;;;5.07;2.92;;;;;;;17.86;100.00;100945.91;2068770;28;20058;-75
2023/04/21 05:19:20;;;;;;;2.90;2.60;;;;;;;18.02;100.00;100943.06;2075048;28;20112;-75
2023/04/21 05:20:41;;;;;;;4.13;2.72;;;;;;;18.17;100.00;100948.25;2071561;28;20573;-75
2023/04/21 05:22:05;;;;;;;4.47;2.65;;;;;;;18.28;100.00;100940.97;2060698;28;20050;-74
2023/04/21 05:23:27;;;;;;;6.15;2.47;;;;;;;18.42;100.00;100944.34;2075122;28;20481;-75
2023/04/21 05:24:50;;;;;;;4.50;2.63;;;;;;;18.56;100.00;100936.16;2071543;28;20052;-74
2023/04/21 05:26:12;;;;;;;4.50;2.80;;;;;;;18.67;100.00;100937.75;2076901;28;20053;-74
2023/04/21 05:27:34;;;;;;;4.05;2.30;;;;;;;18.80;100.00;100940.25;2063506;28;20101;-75
2023/04/21 05:28:57;;;;;;;4.80;2.22;;;;;;;18.92;100.00;100940.94;2068567;28;20049;-75
2023/04/21 05:30:19;;;;;;;4.88;2.72;;;;;;;19.02;100.00;100941.69;2074941;28;20095;-75
2023/04/21 05:31:42;;;;;;;5.05;2.53;;;;;;;19.09;100.00;100940.69;2075447;28;20461;-75
2023/04/21 05:33:04;;;;;;;4.75;2.45;;;;;;;19.18;100.00;100931.59;2076901;28;20041;-75
2023/04/21 05:34:26;;;;;;;5.45;2.10;;;;;;;19.35;100.00;100934.88;2069060;28;20057;-75
2023/04/21 05:35:49;;;;;;;8.57;2.65;;;;;;;19.49;100.00;100930.22;2077557;28;20045;-75
2023/04/21 05:37:11;;;;;;;9.85;2.83;;;;;;;19.64;100.00;100937.06;2079430;28;20064;-75
2023/04/21 05:38:34;;;;;;;5.47;2.92;;;;;;;19.78;100.00;100932.31;2066285;28;20070;-75
2023/04/21 05:39:57;;;;;;;5.38;2.63;;;;;;;19.92;100.00;100926.69;2070871;28;20510;-75
2023/04/21 05:41:21;;;;;;;4.75;2.05;;;;;;;20.08;100.00;100928.16;2075409;28;20048;-75
2023/04/21 05:42:43;;;;;;;5.03;2.60;;;;;;;20.21;100.00;100927.88;2076561;28;20041;-75
2023/04/21 05:44:06;;;;;;;5.10;2.35;;;;;;;20.32;100.00;100924.94;2077137;28;20029;-75
2023/04/21 05:45:28;;;;;;;3.38;2.10;;;;;;;20.44;100.00;100921.13;2077073;28;20476;-75
2023/04/21 05:46:50;;;;;;;3.22;1.90;;;;;;;20.61;100.00;100925.19;2078197;28;20041;-75
2023/04/21 05:48:13;;;;;;;3.20;1.95;;;;;;;20.78;100.00;100922.13;2076349;28;20548;-75
2023/04/21 05:49:35;;;;;;;4.03;2.17;;;;;;;20.94;100.00;100919.94;2077313;28;20037;-75
2023/04/21 05:50:57;;;;;;;4.40;2.20;;;;;;;21.00;100.00;100917.13;2075159;28;20068;-75
2023/04/21 05:52:20;;;;;;;3.75;1.65;;;;;;;21.09;100.00;100920.47;2070995;28;20042;-75
2023/04/21 05:53:42;;;;;;;4.22;1.90;;;;;;;21.22;100.00;100921.06;2075907;28;20106;-75
2023/04/21 05:55:07;;;;;;;2.90;1.50;;;;;;;21.36;100.00;100912.66;2069732;28;20129;-75
2023/04/21 05:56:29;;;;;;;4.78;1.70;;;;;;;21.46;100.00;100916.88;2076641;28;20038;-75
2023/04/21 05:57:51;;;;;;;4.32;1.92;;;;;;;21.54;100.00;100916.66;2077696;28;20509;-75
2023/04/21 05:59:13;;;;;;;5.50;2.28;;;;;;;21.60;100.00;100919.16;2077560;28;20037;-76
2023/04/21 06:00:35;;;;;;;3.78;2.15;;;;;;;21.63;100.00;100919.97;2080272;28;20033;-76
2023/04/21 06:01:57;;;;;;;7.35;1.77;;;;;;;21.68;100.00;100920.72;2076207;28;20796;-76
2023/04/21 06:03:20;;;;;;;3.75;1.73;;;;;;;21.74;100.00;100915.19;2077596;28;20505;-76
2023/04/21 06:04:41;;;;;;;4.72;2.60;;;;;;;21.79;100.00;100920.44;2069519;28;20073;-76
2023/04/21 06:06:05;;;;;;;2.75;1.83;;;;;;;21.83;100.00;100914.94;2074303;28;20045;-76
2023/04/21 06:07:27;;;;;;;3.65;2.10;;;;;;;21.89;100.00;100916.56;2071581;28;20149;-75
2023/04/21 06:08:49;;;;;;;5.13;2.08;;;;;;;21.97;100.00;100919.06;2079291;28;20060;-76
2023/04/21 06:10:13;;;;;;;4.20;1.80;;;;;;;22.05;100.00;100915.25;2080133;28;20041;-72
2023/04/21 06:11:35;;;;;;;6.20;1.92;;;;;;;22.14;100.00;100914.97;2072856;28;20132;-73
2023/04/21 06:12:57;;;;;;;4.22;1.70;;;;;;;22.23;100.00;100922.75;2076948;28;20061;-72
2023/04/21 06:14:20;;;;;;;4.57;2.22;;;;;;;22.33;100.00;100922.47;2074210;28;20041;-73
2023/04/21 06:15:43;;;;;;;4.53;1.98;;;;;;;22.41;100.00;100921.31;2078214;28;20061;-73
2023/04/21 06:17:05;;;;;;;5.03;1.70;;;;;;;22.50;100.00;100920.16;2070516;28;20486;-73
2023/04/21 06:18:27;;;;;;;4.38;1.60;;;;;;;22.58;100.00;100921.66;2077841;28;20049;-73